createdAt,value
2022-08-02T00:00:34.878Z,82.51
2022-08-02T00:03:02.797Z,82.22
2022-08-02T00:05:31.984Z,82.39
2022-08-02T00:07:59.897Z,82.87
2022-08-02T00:10:27.738Z,82.91
2022-08-02T00:12:55.509Z,82.92
2022-08-02T00:15:23.739Z,83.93
2022-08-02T00:17:51.538Z,84.86
2022-08-02T00:20:19.738Z,85.31
2022-08-02T00:22:48.834Z,84.86
2022-08-02T00:25:16.984Z,85.22
2022-08-02T00:27:44.726Z,84.58
2022-08-02T00:30:13.416Z,85.41
2022-08-02T00:32:41.230Z,85.89
2022-08-02T00:35:09.966Z,85.91
2022-08-02T00:37:40.577Z,85.22
2022-08-02T00:40:11.137Z,84.61
2022-08-02T00:42:39.046Z,83.78
2022-08-02T00:45:07.737Z,83.95
2022-08-02T00:47:35.553Z,84.04
2022-08-02T00:50:03.378Z,84.20
2022-08-02T00:52:31.247Z,83.80
2022-08-02T00:54:59.030Z,83.21
2022-08-02T00:57:28.203Z,82.38
2022-08-02T00:59:56.023Z,82.77
2022-08-02T01:02:23.823Z,82.97
2022-08-02T01:04:51.679Z,83.99
2022-08-02T01:07:19.568Z,83.33
2022-08-02T01:09:47.428Z,82.67
2022-08-02T01:12:15.722Z,83.07
2022-08-02T01:14:48.818Z,83.74
2022-08-02T01:17:24.284Z,83.83
2022-08-02T01:19:58.516Z,83.83
2022-08-02T01:23:00.658Z,83.73
2022-08-02T01:25:44.346Z,83.04
2022-08-02T01:28:27.853Z,83.31
2022-08-02T01:30:59.512Z,83.47
2022-08-02T01:33:34.057Z,83.72
2022-08-02T01:36:05.996Z,84.72
2022-08-02T01:38:38.971Z,84.28
2022-08-02T01:41:10.782Z,84.13
2022-08-02T01:43:43.323Z,84.47
2022-08-02T01:46:13.943Z,86.31
2022-08-02T01:48:43.649Z,87.48
2022-08-02T01:51:14.282Z,86.72
2022-08-02T01:53:44.859Z,85.48
2022-08-02T01:56:15.443Z,86.59
2022-08-02T01:58:46.575Z,85.51
2022-08-02T02:01:18.313Z,85.04
2022-08-02T02:03:48.546Z,84.82
2022-08-02T02:06:18.136Z,85.17
2022-08-02T02:08:46.437Z,85.37
2022-08-02T02:12:06.217Z,85.98
2022-08-02T02:14:04.414Z,86.71
2022-08-02T02:16:34.423Z,86.41
2022-08-02T02:19:03.726Z,86.43
2022-08-02T02:21:31.699Z,86.71
2022-08-02T02:24:00.233Z,86.96
2022-08-02T02:26:31.382Z,86.75
2022-08-02T02:29:02.426Z,86.42
2022-08-02T02:31:33.739Z,86.91
2022-08-02T02:34:05.365Z,87.38
2022-08-02T02:36:35.130Z,88.87
2022-08-02T02:39:12.974Z,88.37
2022-08-02T02:41:42.503Z,90.55
2022-08-02T02:44:14.411Z,88.83
2022-08-02T02:46:45.537Z,90.54
2022-08-02T02:49:14.477Z,91.16
2022-08-02T02:51:43.367Z,91.38
2022-08-02T02:54:30.783Z,91.26
2022-08-02T02:57:02.668Z,91.29
2022-08-02T02:59:31.276Z,91.94
2022-08-02T03:02:01.110Z,90.81
2022-08-02T03:04:35.964Z,89.83
2022-08-02T03:07:18.512Z,90.39
2022-08-02T03:09:47.996Z,91.99
2022-08-02T03:12:31.827Z,92.08
2022-08-02T03:15:02.113Z,92.30
2022-08-02T03:17:40.613Z,92.41
2022-08-02T03:20:12.782Z,92.53
2022-08-02T03:22:40.876Z,93.06
2022-08-02T03:25:09.888Z,93.72
2022-08-02T03:27:38.043Z,93.29
2022-08-02T03:30:08.299Z,93.62
2022-08-02T03:32:37.153Z,93.50
2022-08-02T03:35:10.311Z,93.39
2022-08-02T03:37:39.128Z,93.42
2022-08-02T03:40:09.339Z,94.13
2022-08-02T03:42:37.516Z,94.98
2022-08-02T03:45:09.170Z,94.90
2022-08-02T03:47:39.184Z,94.13
2022-08-02T03:50:11.623Z,93.48
2022-08-02T03:52:41.494Z,93.14
2022-08-02T03:55:10.392Z,93.23
2022-08-02T03:57:39.756Z,94.72
2022-08-02T04:00:09.592Z,94.36
2022-08-02T04:02:40.239Z,95.65
2022-08-02T04:05:09.798Z,96.80
2022-08-02T04:08:32.861Z,94.91
2022-08-02T04:10:25.601Z,94.71
2022-08-02T04:12:53.611Z,96.20
2022-08-02T04:15:23.830Z,95.40
2022-08-02T04:17:56.526Z,96.46
2022-08-02T04:20:28.891Z,94.59
2022-08-02T04:23:01.646Z,94.62
2022-08-02T04:25:35.530Z,93.76
2022-08-02T04:28:16.806Z,94.90
2022-08-02T04:30:46.732Z,94.36
2022-08-02T04:33:15.556Z,95.67
2022-08-02T04:35:45.218Z,95.05
2022-08-02T04:38:14.298Z,94.55
2022-08-02T04:40:42.164Z,92.77
2022-08-02T04:43:09.989Z,92.38
2022-08-02T04:45:38.433Z,93.23
2022-08-02T04:48:07.191Z,94.05
2022-08-02T04:50:35.095Z,93.86
2022-08-02T04:53:04.279Z,93.74
2022-08-02T04:55:32.069Z,92.86
2022-08-02T04:58:03.666Z,92.91
2022-08-02T05:00:35.200Z,94.50
2022-08-02T05:03:03.727Z,93.98
2022-08-02T05:05:31.662Z,96.86
2022-08-02T05:07:59.390Z,97.33
2022-08-02T05:10:28.772Z,97.09
2022-08-02T05:12:57.173Z,96.53
2022-08-02T05:15:25.160Z,95.60
2022-08-02T05:17:52.918Z,95.74
2022-08-02T05:20:20.977Z,95.01
2022-08-02T05:22:48.829Z,95.15
2022-08-02T05:25:16.958Z,93.83
2022-08-02T05:27:46.093Z,94.23
2022-08-02T05:30:14.086Z,92.48
2022-08-02T05:32:53.558Z,91.97
2022-08-02T05:35:44.120Z,91.42
2022-08-02T05:38:11.982Z,90.29
2022-08-02T05:40:54.295Z,89.21
2022-08-02T05:43:24.316Z,90.02
2022-08-02T05:45:54.435Z,90.89
2022-08-02T05:48:25.458Z,90.88
2022-08-02T05:51:03.961Z,89.22
2022-08-02T05:53:39.567Z,87.40
2022-08-02T05:56:17.390Z,87.14
2022-08-02T05:58:54.050Z,85.85
2022-08-02T06:01:28.214Z,87.14
2022-08-02T06:03:58.805Z,85.64
2022-08-02T06:06:27.048Z,85.92
2022-08-02T06:08:59.913Z,85.71
2022-08-02T06:11:35.747Z,84.87
2022-08-02T06:14:06.474Z,85.87
2022-08-02T06:16:37.656Z,84.84
2022-08-02T06:19:12.623Z,83.78
2022-08-02T06:22:32.271Z,83.41
2022-08-02T06:24:31.647Z,82.07
2022-08-02T06:27:00.639Z,81.74
2022-08-02T06:29:36.873Z,80.88
2022-08-02T06:32:08.799Z,80.42
2022-08-02T06:34:41.326Z,78.89
2022-08-02T06:37:16.010Z,78.94
2022-08-02T06:39:46.606Z,78.86
2022-08-02T06:42:26.979Z,78.62
2022-08-02T06:44:58.578Z,78.07
2022-08-02T06:47:27.267Z,79.28
2022-08-02T06:49:56.827Z,78.37
2022-08-02T06:52:29.404Z,77.50
2022-08-02T06:54:59.757Z,77.11
2022-08-02T06:57:28.311Z,76.49
2022-08-02T06:59:56.193Z,76.43
2022-08-02T07:02:25.564Z,76.84
2022-08-02T07:04:53.458Z,75.55
2022-08-02T07:07:21.348Z,75.27
2022-08-02T07:09:56.828Z,75.63
2022-08-02T07:12:31.308Z,74.70
2022-08-02T07:14:59.502Z,73.93
2022-08-02T07:17:28.945Z,74.92
2022-08-02T07:19:56.846Z,74.83
2022-08-02T07:22:26.778Z,74.63
2022-08-02T07:24:55.546Z,73.19
2022-08-02T07:27:24.045Z,72.62
2022-08-02T07:29:52.234Z,72.15
2022-08-02T07:32:21.834Z,71.31
2022-08-02T07:34:53.375Z,70.72
2022-08-02T07:37:53.306Z,71.09
2022-08-02T07:40:14.007Z,70.97
2022-08-02T07:42:43.231Z,71.63
2022-08-02T07:45:11.870Z,70.35
2022-08-02T07:47:40.521Z,69.88
2022-08-02T07:50:12.144Z,69.84
2022-08-02T07:52:41.859Z,70.21
2022-08-02T07:55:10.972Z,68.20
2022-08-02T07:57:45.774Z,67.35
2022-08-02T08:00:16.194Z,67.64
2022-08-02T08:02:44.207Z,65.85
2022-08-02T08:05:13.695Z,65.88
2022-08-02T08:07:41.776Z,65.05
2022-08-02T08:10:10.634Z,65.44
2022-08-02T08:12:38.445Z,65.61
2022-08-02T08:15:07.240Z,63.96
2022-08-02T08:17:35.150Z,62.83
2022-08-02T08:20:03.142Z,62.67
2022-08-02T08:22:32.309Z,61.94
2022-08-02T08:25:00.119Z,62.38
2022-08-02T08:27:28.025Z,61.20
2022-08-02T08:29:55.836Z,61.03
2022-08-02T08:32:24.153Z,62.02
2022-08-02T08:34:52.297Z,60.46
2022-08-02T08:37:20.394Z,60.41
2022-08-02T08:39:57.178Z,60.46
2022-08-02T08:42:25.840Z,60.03
2022-08-02T08:44:53.860Z,59.35
2022-08-02T08:47:24.574Z,57.47
2022-08-02T08:49:55.898Z,57.62
2022-08-02T08:52:26.702Z,55.66
2022-08-02T08:54:57.309Z,56.63
2022-08-02T08:57:29.934Z,57.40
2022-08-02T08:59:57.951Z,56.71
2022-08-02T09:02:28.310Z,57.33
2022-08-02T09:04:56.880Z,55.91
2022-08-02T09:07:24.852Z,57.46
2022-08-02T09:09:52.701Z,55.54
2022-08-02T09:12:24.994Z,54.81
2022-08-02T09:14:53.016Z,53.78
2022-08-02T09:17:22.123Z,55.00
2022-08-02T09:20:07.204Z,54.45
2022-08-02T09:22:35.041Z,54.32
2022-08-02T09:25:02.897Z,53.66
2022-08-02T09:27:37.753Z,54.39
2022-08-02T09:30:15.354Z,55.96
2022-08-02T09:32:47.963Z,55.45
2022-08-02T09:36:06.027Z,55.43
2022-08-02T09:38:20.683Z,53.83
2022-08-02T09:40:48.544Z,53.30
2022-08-02T09:43:17.888Z,53.13
2022-08-02T09:45:45.644Z,52.58
2022-08-02T09:48:13.729Z,51.94
2022-08-02T09:50:43.010Z,52.03
2022-08-02T09:53:14.050Z,52.73
2022-08-02T09:55:42.371Z,51.97
2022-08-02T09:58:21.851Z,52.02
2022-08-02T10:00:55.884Z,50.53
2022-08-02T10:03:29.040Z,50.42
2022-08-02T10:06:04.459Z,50.48
2022-08-02T10:08:34.003Z,51.21
2022-08-02T10:11:03.593Z,50.47
2022-08-02T10:13:34.928Z,48.86
2022-08-02T10:16:03.660Z,49.40
2022-08-02T10:18:40.853Z,49.26
2022-08-02T10:21:14.317Z,48.16
2022-08-02T10:23:44.784Z,48.33
2022-08-02T10:26:17.693Z,48.16
2022-08-02T10:28:50.480Z,48.08
2022-08-02T10:31:25.304Z,47.86
2022-08-02T10:33:55.189Z,47.97
2022-08-02T10:36:27.104Z,48.01
2022-08-02T10:38:58.534Z,47.32
2022-08-02T10:41:43.540Z,48.10
2022-08-02T10:44:24.885Z,45.25
2022-08-02T10:46:53.461Z,44.67
2022-08-02T10:49:39.798Z,46.76
2022-08-02T10:52:11.541Z,47.96
2022-08-02T10:54:42.033Z,47.80
2022-08-02T10:57:21.260Z,45.70
2022-08-02T10:59:52.099Z,44.67
2022-08-02T11:02:39.587Z,45.95
2022-08-02T11:05:17.861Z,44.91
2022-08-02T11:07:49.556Z,44.62
2022-08-02T11:10:44.525Z,45.20
2022-08-02T11:13:15.007Z,44.23
2022-08-02T11:16:11.344Z,42.46
2022-08-02T11:19:08.197Z,43.11
2022-08-02T11:21:36.697Z,44.03
2022-08-02T11:24:28.691Z,43.91
2022-08-02T11:26:57.952Z,43.39
2022-08-02T11:29:38.261Z,42.27
2022-08-02T11:32:09.435Z,41.35
2022-08-02T11:34:39.978Z,41.64
2022-08-02T11:37:07.910Z,41.98
2022-08-02T11:39:35.764Z,40.31
2022-08-02T11:42:03.616Z,40.99
2022-08-02T11:44:41.626Z,41.70
2022-08-02T11:47:10.918Z,41.08
2022-08-02T11:49:39.106Z,43.09
2022-08-02T11:52:10.962Z,42.81
2022-08-02T11:54:40.743Z,43.79
2022-08-02T11:57:18.659Z,43.88
2022-08-02T11:59:49.845Z,44.77
2022-08-02T12:02:19.811Z,45.53
2022-08-02T12:04:54.688Z,44.96
2022-08-02T12:07:31.976Z,44.62
2022-08-02T12:10:04.449Z,44.57
2022-08-02T12:12:32.496Z,42.99
2022-08-02T12:15:00.550Z,43.82
2022-08-02T12:17:47.650Z,42.82
2022-08-02T12:20:17.269Z,42.09
2022-08-02T12:22:45.244Z,40.15
2022-08-02T12:25:33.520Z,40.30
2022-08-02T12:28:18.285Z,40.11
2022-08-02T12:30:54.671Z,41.67
2022-08-02T12:33:25.118Z,39.64
2022-08-02T12:35:53.472Z,38.87
2022-08-02T12:38:21.521Z,38.49
2022-08-02T12:40:50.671Z,40.08
2022-08-02T12:43:21.606Z,39.92
2022-08-02T12:45:53.835Z,38.13
2022-08-02T12:48:37.408Z,40.02
2022-08-02T12:51:20.240Z,41.73
2022-08-02T12:53:48.147Z,40.77
2022-08-02T12:56:28.473Z,40.20
2022-08-02T12:58:56.900Z,39.72
2022-08-02T13:01:26.711Z,39.28
2022-08-02T13:04:10.674Z,38.17
2022-08-02T13:06:44.416Z,37.69
2022-08-02T13:09:15.428Z,37.92
2022-08-02T13:11:43.985Z,37.77
2022-08-02T13:14:12.608Z,38.27
2022-08-02T13:16:41.294Z,38.51
2022-08-02T13:19:10.804Z,37.94
2022-08-02T13:21:40.818Z,37.58
2022-08-02T13:24:39.691Z,39.77
2022-08-02T13:27:09.253Z,38.76
2022-08-02T13:29:37.423Z,39.62
2022-08-02T13:32:05.547Z,39.41
2022-08-02T13:34:34.762Z,39.44
2022-08-02T13:37:03.022Z,37.95
2022-08-02T13:39:31.125Z,38.23
2022-08-02T13:41:59.074Z,37.51
2022-08-02T13:44:26.886Z,37.40
2022-08-02T13:46:54.771Z,37.26
2022-08-02T13:49:50.601Z,37.97
2022-08-02T13:52:13.343Z,38.24
2022-08-02T13:54:41.392Z,38.17
2022-08-02T13:57:09.193Z,37.82
2022-08-02T13:59:56.601Z,37.52
2022-08-02T14:02:24.970Z,36.88
2022-08-02T14:04:52.905Z,36.72
2022-08-02T14:07:22.465Z,37.79
2022-08-02T14:09:50.414Z,36.73
2022-08-02T14:12:18.234Z,37.25
2022-08-02T14:14:46.048Z,38.28
2022-08-02T14:17:14.051Z,38.60
2022-08-02T14:19:41.886Z,38.43
2022-08-02T14:22:21.458Z,37.16
2022-08-02T14:24:50.594Z,36.58
2022-08-02T14:27:18.407Z,38.04
2022-08-02T14:29:47.953Z,38.64
2022-08-02T14:32:16.123Z,39.50
2022-08-02T14:34:44.856Z,38.60
2022-08-02T14:37:12.598Z,39.28
2022-08-02T14:39:42.936Z,38.77
2022-08-02T14:42:29.236Z,39.02
2022-08-02T14:44:57.076Z,38.95
2022-08-02T14:47:24.931Z,38.81
2022-08-02T14:49:52.881Z,37.95
2022-08-02T14:52:21.203Z,38.23
2022-08-02T14:54:49.306Z,37.93
2022-08-02T14:57:17.415Z,38.39
2022-08-02T14:59:47.260Z,37.97
2022-08-02T15:02:15.233Z,38.47
2022-08-02T15:04:44.020Z,38.12
2022-08-02T15:07:13.092Z,37.76
2022-08-02T15:09:41.477Z,38.24
2022-08-02T15:12:10.447Z,37.32
2022-08-02T15:14:38.621Z,38.73
2022-08-02T15:17:08.749Z,37.95
2022-08-02T15:19:57.058Z,38.12
2022-08-02T15:22:24.640Z,37.00
2022-08-02T15:24:52.949Z,37.42
2022-08-02T15:27:20.842Z,36.92
2022-08-02T15:29:48.963Z,36.99
2022-08-02T15:32:19.636Z,37.46
2022-08-02T15:34:48.159Z,36.59
2022-08-02T15:37:16.089Z,37.04
2022-08-02T15:39:43.949Z,37.48
2022-08-02T15:42:12.605Z,37.65
2022-08-02T15:44:40.859Z,38.51
2022-08-02T15:47:09.354Z,38.22
2022-08-02T15:49:41.510Z,38.03
2022-08-02T15:52:11.040Z,37.88
2022-08-02T15:54:39.123Z,38.42
2022-08-02T15:57:06.999Z,38.12
2022-08-02T15:59:34.844Z,38.31
2022-08-02T16:02:03.170Z,37.91
2022-08-02T16:04:31.016Z,38.45
2022-08-02T16:07:01.537Z,38.89
2022-08-02T16:09:29.758Z,39.20
2022-08-02T16:11:58.332Z,38.61
2022-08-02T16:14:26.545Z,38.68
2022-08-02T16:16:57.429Z,38.53
2022-08-02T16:19:47.287Z,38.12
2022-08-02T16:22:14.846Z,38.35
2022-08-02T16:24:42.975Z,38.75
2022-08-02T16:27:10.845Z,37.79
2022-08-02T16:29:38.692Z,38.62
2022-08-02T16:32:07.121Z,38.60
2022-08-02T16:35:03.991Z,37.82
2022-08-02T16:37:24.810Z,38.44
2022-08-02T16:39:52.692Z,38.37
2022-08-02T16:42:25.646Z,38.28
2022-08-02T16:44:53.887Z,38.90
2022-08-02T16:47:36.835Z,39.20
2022-08-02T16:50:11.627Z,39.21
2022-08-02T16:52:41.151Z,39.98
2022-08-02T16:55:11.225Z,39.74
2022-08-02T16:57:43.297Z,39.60
2022-08-02T17:00:15.434Z,40.11
2022-08-02T17:02:43.525Z,39.76
2022-08-02T17:05:14.388Z,39.46
2022-08-02T17:08:07.974Z,38.89
2022-08-02T17:10:34.569Z,39.66
2022-08-02T17:13:11.668Z,39.41
2022-08-02T17:16:00.957Z,38.48
2022-08-02T17:18:28.491Z,40.04
2022-08-02T17:20:56.398Z,39.97
2022-08-02T17:24:04.147Z,38.84
2022-08-02T17:26:13.814Z,39.39
2022-08-02T17:29:03.791Z,40.63
2022-08-02T17:31:42.329Z,40.33
2022-08-02T17:34:16.606Z,40.68
2022-08-02T17:39:43.996Z,40.67
2022-08-02T17:42:23.082Z,40.44
2022-08-02T17:44:52.234Z,39.36
2022-08-02T17:47:20.851Z,40.35
2022-08-02T17:49:52.744Z,41.20
2022-08-02T17:52:50.138Z,42.08
2022-08-02T17:55:14.781Z,42.89
2022-08-02T18:00:35.349Z,42.60
2022-08-02T18:03:06.218Z,41.56
2022-08-02T18:05:41.593Z,42.74
2022-08-02T18:08:21.809Z,42.34
2022-08-02T18:10:53.798Z,43.83
2022-08-02T18:13:22.543Z,43.54
2022-08-02T18:15:52.278Z,43.38
2022-08-02T18:18:29.437Z,44.18
2022-08-02T18:21:16.063Z,44.03
2022-08-02T18:23:49.497Z,44.33
2022-08-02T18:26:29.866Z,46.43
2022-08-02T18:28:58.964Z,45.84
2022-08-02T18:31:27.601Z,46.38
2022-08-02T18:34:01.976Z,47.74
2022-08-02T18:36:31.578Z,49.11
2022-08-02T18:39:08.099Z,45.97
2022-08-02T18:41:38.320Z,46.05
2022-08-02T18:44:06.819Z,46.81
2022-08-02T18:46:34.698Z,48.00
2022-08-02T18:51:51.338Z,47.95
2022-08-02T18:54:30.945Z,47.93
2022-08-02T18:57:51.298Z,48.26
2022-08-02T18:59:52.657Z,49.23
2022-08-02T19:02:22.436Z,49.78
2022-08-02T19:04:53.680Z,50.01
2022-08-02T19:07:23.291Z,51.14
2022-08-02T19:10:12.400Z,50.69
2022-08-02T19:12:43.019Z,51.07
2022-08-02T19:15:17.295Z,51.26
2022-08-02T19:17:54.338Z,51.75
2022-08-02T19:20:25.821Z,51.02
2022-08-02T19:22:54.606Z,51.20
2022-08-02T19:25:27.818Z,50.85
2022-08-02T19:27:57.626Z,52.42
2022-08-02T19:30:29.140Z,53.95
2022-08-02T19:32:58.661Z,52.73
2022-08-02T19:35:30.519Z,54.39
2022-08-02T19:38:08.754Z,54.04
2022-08-02T19:40:37.399Z,53.96
2022-08-02T19:44:25.147Z,54.68
2022-08-02T19:45:56.844Z,54.69
2022-08-02T19:48:26.960Z,55.38
2022-08-02T19:51:01.208Z,55.10
2022-08-02T19:53:47.441Z,56.70
2022-08-02T19:56:20.649Z,57.09
2022-08-02T19:58:51.997Z,56.46
2022-08-02T20:01:26.941Z,56.53
2022-08-02T20:04:06.205Z,57.61
2022-08-02T20:06:34.034Z,59.09
2022-08-02T20:09:01.825Z,60.00
2022-08-02T20:11:34.958Z,60.54
2022-08-02T20:14:05.486Z,59.75
2022-08-02T20:16:33.444Z,61.10
2022-08-02T20:19:02.466Z,61.59
2022-08-02T20:21:35.969Z,61.52
2022-08-02T20:24:06.908Z,61.58
2022-08-02T20:26:35.377Z,62.07
2022-08-02T20:29:05.062Z,61.93
2022-08-02T20:31:33.029Z,61.95
2022-08-02T20:34:00.918Z,62.31
2022-08-02T20:36:29.376Z,61.64
2022-08-02T20:38:57.137Z,61.72
2022-08-02T20:41:37.146Z,61.83
2022-08-02T20:47:02.329Z,62.67
2022-08-02T20:49:40.931Z,62.88
2022-08-02T20:52:24.097Z,65.49
2022-08-02T20:54:53.099Z,65.44
2022-08-02T20:57:48.448Z,65.68
2022-08-02T21:00:11.818Z,66.41
2022-08-02T21:02:39.919Z,66.92
2022-08-02T21:05:15.388Z,66.59
2022-08-02T21:07:47.882Z,64.84
2022-08-02T21:10:24.019Z,64.63
2022-08-02T21:12:52.322Z,65.60
2022-08-02T21:15:21.585Z,65.87
2022-08-02T21:17:51.844Z,66.90
2022-08-02T21:20:29.450Z,67.36
2022-08-02T21:22:58.186Z,67.77
2022-08-02T21:25:51.188Z,67.49
2022-08-02T21:28:17.595Z,67.80
2022-08-02T21:30:47.067Z,67.42
2022-08-02T21:33:22.414Z,67.18
2022-08-02T21:35:52.224Z,66.25
2022-08-02T21:38:35.735Z,66.45
2022-08-02T21:41:06.124Z,67.67
2022-08-02T21:43:40.489Z,68.24
2022-08-02T21:46:14.647Z,67.97
2022-08-02T21:48:42.646Z,67.41
2022-08-02T21:51:15.906Z,67.08
2022-08-02T21:53:44.079Z,68.13
2022-08-02T21:56:31.974Z,68.63
2022-08-02T21:58:59.856Z,69.07
2022-08-02T22:01:29.815Z,69.15
2022-08-02T22:03:58.579Z,69.84
2022-08-02T22:06:26.775Z,70.37
2022-08-02T22:08:55.177Z,70.39
2022-08-02T22:11:23.004Z,70.45
2022-08-02T22:13:51.236Z,71.05
2022-08-02T22:16:19.903Z,70.22
2022-08-02T22:18:52.657Z,70.23
2022-08-02T22:21:22.760Z,70.73
2022-08-02T22:23:51.440Z,70.96
2022-08-02T22:26:19.765Z,71.02
2022-08-02T22:28:51.772Z,70.82
2022-08-02T22:31:40.538Z,70.70
2022-08-02T22:34:26.994Z,69.75
2022-08-02T22:36:57.637Z,70.83
2022-08-02T22:39:25.412Z,71.34
2022-08-02T22:42:05.495Z,72.08
2022-08-02T22:44:35.200Z,72.81
2022-08-02T22:47:07.447Z,72.38
2022-08-02T22:49:52.867Z,73.92
2022-08-02T22:52:33.102Z,72.93
2022-08-02T22:55:00.954Z,72.25
2022-08-02T22:57:31.372Z,72.89
2022-08-02T22:58:39.404Z,40.92
2022-08-02T22:58:51.223Z,41.92
2022-08-02T22:58:58.610Z,48.28
2022-08-02T22:59:06.196Z,61.70
2022-08-02T22:59:59.843Z,73.34
2022-08-02T23:02:27.834Z,73.92
2022-08-02T23:04:57.124Z,73.07
2022-08-02T23:07:24.885Z,73.06
2022-08-02T23:09:52.713Z,73.35
2022-08-02T23:12:21.161Z,74.78
2022-08-02T23:14:51.252Z,74.66
2022-08-02T23:17:37.376Z,74.53
2022-08-02T23:20:09.626Z,74.38
2022-08-02T23:22:38.089Z,74.54
2022-08-02T23:25:07.320Z,75.09
2022-08-02T23:27:35.593Z,74.88
2022-08-02T23:30:03.851Z,75.32
2022-08-02T23:32:31.790Z,75.70
2022-08-02T23:34:59.799Z,74.74
2022-08-02T23:37:28.984Z,74.40
2022-08-02T23:40:31.680Z,73.65
2022-08-02T23:43:14.155Z,73.51
2022-08-02T23:45:44.934Z,74.37
2022-08-02T23:48:12.787Z,74.26
2022-08-02T23:50:40.679Z,73.84
2022-08-02T23:53:09.908Z,75.58
2022-08-02T23:55:37.758Z,77.48
2022-08-02T23:58:05.662Z,77.44
